createdAt,value
2016-12-26T00:00:12.321Z,0
2016-12-26T00:00:52.813Z,0
2016-12-26T00:01:33.318Z,0
2016-12-26T00:02:13.808Z,0
2016-12-26T00:02:54.325Z,0
2016-12-26T00:03:34.826Z,0
2016-12-26T00:04:15.323Z,0
2016-12-26T00:04:55.828Z,0
2016-12-26T00:05:36.317Z,0
2016-12-26T00:06:16.819Z,0
2016-12-26T00:06:57.314Z,0
2016-12-26T00:07:37.818Z,0
2016-12-26T00:08:18.313Z,0
2016-12-26T00:08:58.797Z,0
2016-12-26T00:09:39.291Z,0
2016-12-26T00:10:19.784Z,0
2016-12-26T00:11:00.277Z,0
2016-12-26T00:11:40.774Z,0
2016-12-26T00:12:21.268Z,0
2016-12-26T00:13:01.752Z,0
2016-12-26T00:13:42.264Z,0
2016-12-26T00:14:22.755Z,0
2016-12-26T00:15:03.257Z,0
2016-12-26T00:15:43.749Z,0
2016-12-26T00:16:24.235Z,0
2016-12-26T00:17:04.719Z,0
2016-12-26T00:17:45.213Z,0
2016-12-26T00:18:25.706Z,0
2016-12-26T00:19:06.210Z,0
2016-12-26T00:19:46.714Z,0
2016-12-26T00:20:27.208Z,0
2016-12-26T00:21:07.705Z,0
2016-12-26T00:21:48.200Z,0
2016-12-26T00:22:28.711Z,0
2016-12-26T00:23:09.200Z,0
2016-12-26T00:23:49.685Z,0
2016-12-26T00:24:30.170Z,0
2016-12-26T00:25:10.677Z,0
2016-12-26T00:25:51.163Z,0
2016-12-26T00:26:31.655Z,0
2016-12-26T00:27:12.152Z,0
2016-12-26T00:27:52.650Z,0
2016-12-26T00:28:33.147Z,0
2016-12-26T00:29:13.639Z,0
2016-12-26T00:29:54.153Z,0
2016-12-26T00:30:34.656Z,0
2016-12-26T00:31:15.148Z,0
2016-12-26T00:31:55.643Z,0
2016-12-26T00:32:36.151Z,0
2016-12-26T00:33:16.647Z,0
2016-12-26T00:33:57.145Z,0
2016-12-26T00:34:37.642Z,0
2016-12-26T00:35:18.140Z,0
2016-12-26T00:35:58.634Z,0
2016-12-26T00:36:39.135Z,0
2016-12-26T00:37:19.639Z,0
2016-12-26T00:38:00.141Z,0
2016-12-26T00:38:40.630Z,0
2016-12-26T00:39:21.146Z,0
2016-12-26T00:40:01.641Z,0
2016-12-26T00:40:42.144Z,0
2016-12-26T00:41:22.635Z,0
2016-12-26T00:42:03.135Z,0
2016-12-26T00:42:43.628Z,0
2016-12-26T00:43:24.123Z,0
2016-12-26T00:44:04.633Z,0
2016-12-26T00:44:45.132Z,0
2016-12-26T00:45:25.622Z,0
2016-12-26T00:46:06.166Z,0
2016-12-26T00:46:46.653Z,0
2016-12-26T00:47:27.145Z,0
2016-12-26T00:48:07.696Z,0
2016-12-26T00:48:48.190Z,0
2016-12-26T00:49:28.683Z,0
2016-12-26T00:50:09.184Z,0
2016-12-26T00:50:49.678Z,0
2016-12-26T00:51:30.170Z,0
2016-12-26T00:52:10.659Z,0
2016-12-26T00:52:51.160Z,0
2016-12-26T00:53:31.679Z,0
2016-12-26T00:54:12.171Z,0
2016-12-26T00:54:52.654Z,0
2016-12-26T00:55:33.143Z,0
2016-12-26T00:56:13.645Z,0
2016-12-26T00:56:54.141Z,0
2016-12-26T00:57:34.636Z,0
2016-12-26T00:58:15.126Z,0
2016-12-26T00:58:55.614Z,0
2016-12-26T00:59:36.124Z,0
2016-12-26T01:00:16.615Z,0
2016-12-26T01:00:57.117Z,0
2016-12-26T01:01:37.608Z,0
2016-12-26T01:02:18.114Z,0
2016-12-26T01:02:58.615Z,0
2016-12-26T01:03:39.114Z,0
2016-12-26T01:04:19.606Z,0
2016-12-26T01:05:00.343Z,0
2016-12-26T01:05:40.755Z,0
2016-12-26T01:06:21.263Z,0
2016-12-26T01:07:01.766Z,0
2016-12-26T01:07:42.257Z,0
2016-12-26T01:08:22.749Z,0
2016-12-26T01:09:03.266Z,0
2016-12-26T01:09:43.765Z,0
2016-12-26T01:10:24.256Z,0
2016-12-26T01:11:04.746Z,0
2016-12-26T01:11:45.231Z,0
2016-12-26T01:12:25.728Z,0
2016-12-26T01:13:06.218Z,0
2016-12-26T01:13:46.711Z,0
2016-12-26T01:14:27.212Z,0
2016-12-26T01:15:07.699Z,0
2016-12-26T01:15:48.214Z,0
2016-12-26T01:16:28.711Z,0
2016-12-26T01:17:09.839Z,0
2016-12-26T01:17:49.707Z,0
2016-12-26T01:18:30.207Z,0
2016-12-26T01:19:10.698Z,0
2016-12-26T01:19:51.181Z,0
2016-12-26T01:20:31.669Z,0
2016-12-26T01:21:12.163Z,0
2016-12-26T01:21:52.658Z,0
2016-12-26T01:22:33.174Z,0
2016-12-26T01:23:13.661Z,0
2016-12-26T01:23:54.154Z,0
2016-12-26T01:24:34.650Z,0
2016-12-26T01:25:15.139Z,0
2016-12-26T01:25:56.058Z,0
2016-12-26T01:26:36.560Z,0
2016-12-26T01:27:17.059Z,0
2016-12-26T01:27:57.548Z,0
2016-12-26T01:28:38.058Z,0
2016-12-26T01:29:18.545Z,0
2016-12-26T01:29:59.050Z,0
2016-12-26T01:30:39.540Z,0
2016-12-26T01:31:20.037Z,0
2016-12-26T01:32:00.540Z,0
2016-12-26T01:32:41.048Z,0
2016-12-26T01:33:21.536Z,0
2016-12-26T01:34:02.046Z,0
2016-12-26T01:34:42.537Z,0
2016-12-26T01:35:23.045Z,0
2016-12-26T01:36:03.539Z,0
2016-12-26T01:36:44.034Z,0
2016-12-26T01:37:24.541Z,0
2016-12-26T01:38:05.051Z,0
2016-12-26T01:38:45.540Z,0
2016-12-26T01:39:26.043Z,0
2016-12-26T01:40:06.542Z,0
2016-12-26T01:40:47.042Z,0
2016-12-26T01:41:27.536Z,0
2016-12-26T01:42:08.041Z,0
2016-12-26T01:42:48.529Z,0
2016-12-26T01:43:29.037Z,0
2016-12-26T01:44:09.527Z,0
2016-12-26T01:44:50.039Z,0
2016-12-26T01:45:30.539Z,0
2016-12-26T01:46:11.039Z,0
2016-12-26T01:46:51.526Z,0
2016-12-26T01:47:32.027Z,0
2016-12-26T01:48:12.522Z,0
2016-12-26T01:48:53.033Z,0
2016-12-26T01:49:33.526Z,0
2016-12-26T01:50:14.030Z,0
2016-12-26T01:50:54.522Z,0
2016-12-26T01:51:35.032Z,0
2016-12-26T01:52:15.526Z,0
2016-12-26T01:52:56.039Z,0
2016-12-26T01:53:36.525Z,0
2016-12-26T01:54:17.035Z,0
2016-12-26T01:54:57.521Z,0
2016-12-26T01:55:38.008Z,0
2016-12-26T01:56:18.497Z,0
2016-12-26T01:56:58.982Z,0
2016-12-26T01:57:39.486Z,0
2016-12-26T01:58:19.968Z,0
2016-12-26T01:59:00.472Z,0
2016-12-26T01:59:40.966Z,0
2016-12-26T02:00:21.472Z,0
2016-12-26T02:01:01.977Z,0
2016-12-26T02:01:42.473Z,0
2016-12-26T02:02:22.961Z,0
2016-12-26T02:03:03.470Z,0
2016-12-26T02:03:43.965Z,0
2016-12-26T02:04:24.452Z,0
2016-12-26T02:05:04.937Z,0
2016-12-26T02:05:45.443Z,0
2016-12-26T02:06:25.945Z,0
2016-12-26T02:07:06.443Z,0
2016-12-26T02:07:46.929Z,0
2016-12-26T02:08:27.441Z,0
2016-12-26T02:09:07.925Z,0
2016-12-26T02:09:48.405Z,0
2016-12-26T02:10:28.917Z,0
2016-12-26T02:11:09.405Z,0
2016-12-26T02:11:49.897Z,0
2016-12-26T02:12:30.391Z,0
2016-12-26T02:13:10.880Z,0
2016-12-26T02:13:51.857Z,0
2016-12-26T02:14:31.865Z,0
2016-12-26T02:15:12.364Z,0
2016-12-26T02:15:52.860Z,0
2016-12-26T02:16:33.360Z,0
2016-12-26T02:17:13.838Z,0
2016-12-26T02:17:54.324Z,0
2016-12-26T02:18:34.811Z,0
2016-12-26T02:19:15.311Z,0
2016-12-26T02:19:55.805Z,0
2016-12-26T02:20:36.297Z,0
2016-12-26T02:21:16.807Z,0
2016-12-26T02:21:57.303Z,0
2016-12-26T02:22:37.804Z,0
2016-12-26T02:23:18.300Z,0
2016-12-26T02:23:58.801Z,0
2016-12-26T02:24:39.289Z,0
2016-12-26T02:25:19.781Z,0
2016-12-26T02:26:00.277Z,0
2016-12-26T02:28:18.488Z,0
2016-12-26T02:28:58.977Z,0
2016-12-26T02:29:39.465Z,0
2016-12-26T02:30:19.950Z,0
2016-12-26T02:31:00.456Z,0
2016-12-26T02:31:40.942Z,0
2016-12-26T02:32:21.433Z,0
2016-12-26T02:33:01.928Z,0
2016-12-26T02:33:42.427Z,0
2016-12-26T02:34:22.912Z,0
2016-12-26T02:35:03.424Z,0
2016-12-26T02:35:43.930Z,0
2016-12-26T02:36:24.418Z,0
2016-12-26T02:37:05.110Z,0
2016-12-26T02:37:45.589Z,0
2016-12-26T02:38:26.080Z,0
2016-12-26T02:39:06.579Z,0
2016-12-26T02:39:47.068Z,0
2016-12-26T02:40:27.583Z,0
2016-12-26T02:41:08.076Z,0
2016-12-26T02:41:48.578Z,0
2016-12-26T02:42:29.069Z,0
2016-12-26T02:43:09.551Z,0
2016-12-26T02:43:50.032Z,0
2016-12-26T02:44:30.516Z,0
2016-12-26T02:45:11.026Z,0
2016-12-26T02:45:51.523Z,0
2016-12-26T02:46:32.019Z,0
2016-12-26T02:47:12.509Z,0
2016-12-26T02:47:52.992Z,0
2016-12-26T02:48:33.475Z,0
2016-12-26T02:49:13.967Z,0
2016-12-26T02:49:54.466Z,0
2016-12-26T02:50:34.957Z,0
2016-12-26T02:51:15.464Z,0
2016-12-26T02:51:55.949Z,0
2016-12-26T02:52:36.438Z,0
2016-12-26T02:53:16.922Z,0
2016-12-26T02:53:57.415Z,0
2016-12-26T02:54:37.911Z,0
2016-12-26T02:55:18.405Z,0
2016-12-26T02:55:58.907Z,0
2016-12-26T02:56:39.399Z,0
2016-12-26T02:57:19.889Z,0
2016-12-26T02:58:00.405Z,0
2016-12-26T02:58:40.913Z,0
2016-12-26T02:59:21.396Z,0
2016-12-26T03:00:01.907Z,0
2016-12-26T03:00:42.396Z,0
2016-12-26T03:01:22.878Z,0
2016-12-26T03:02:03.359Z,0
2016-12-26T03:02:43.881Z,0
2016-12-26T03:03:24.398Z,0
2016-12-26T03:04:04.895Z,0
2016-12-26T03:04:45.383Z,0
2016-12-26T03:06:58.457Z,0
2016-12-26T03:07:38.823Z,0
2016-12-26T03:08:19.319Z,0
2016-12-26T03:08:59.839Z,0
2016-12-26T03:09:40.336Z,0
2016-12-26T03:10:20.820Z,0
2016-12-26T03:11:01.310Z,0
2016-12-26T03:11:41.806Z,0
2016-12-26T03:12:22.287Z,0
2016-12-26T03:13:02.779Z,0
2016-12-26T03:13:43.263Z,0
2016-12-26T03:14:23.748Z,0
2016-12-26T03:15:04.240Z,0
2016-12-26T03:15:44.730Z,0
2016-12-26T03:16:25.221Z,0
2016-12-26T03:18:58.368Z,0
2016-12-26T03:19:38.859Z,0
2016-12-26T03:20:19.347Z,0
2016-12-26T03:20:59.829Z,0
2016-12-26T03:21:40.313Z,0
2016-12-26T03:22:20.795Z,0
2016-12-26T03:23:01.288Z,0
2016-12-26T03:23:41.806Z,0
2016-12-26T03:24:22.302Z,0
2016-12-26T03:25:02.786Z,0
2016-12-26T03:25:43.284Z,0
2016-12-26T03:26:23.785Z,0
2016-12-26T03:27:04.278Z,0
2016-12-26T03:27:44.796Z,0
2016-12-26T03:28:25.277Z,0
2016-12-26T03:29:05.782Z,0
2016-12-26T03:29:46.275Z,0
2016-12-26T03:30:26.760Z,0
2016-12-26T03:31:07.251Z,0
2016-12-26T03:31:47.755Z,0
2016-12-26T03:32:28.280Z,0
2016-12-26T03:33:08.778Z,0
2016-12-26T03:33:49.267Z,0
2016-12-26T03:34:29.773Z,0
2016-12-26T03:35:10.254Z,0
2016-12-26T03:35:50.739Z,0
2016-12-26T03:36:31.227Z,0
2016-12-26T03:37:11.711Z,0
2016-12-26T03:37:52.207Z,0
2016-12-26T03:38:32.709Z,0
2016-12-26T03:39:13.222Z,0
2016-12-26T03:39:53.709Z,0
2016-12-26T03:40:34.202Z,0
2016-12-26T03:41:14.704Z,0
2016-12-26T03:41:55.184Z,0
2016-12-26T03:42:35.669Z,0
2016-12-26T03:43:16.155Z,0
2016-12-26T03:43:56.651Z,0
2016-12-26T03:44:37.167Z,0
2016-12-26T03:45:17.662Z,0
2016-12-26T03:45:58.152Z,0
2016-12-26T03:46:38.643Z,0
2016-12-26T03:47:19.121Z,0
2016-12-26T03:47:59.613Z,0
2016-12-26T03:48:40.110Z,0
2016-12-26T03:49:20.595Z,0
2016-12-26T03:50:01.194Z,0
2016-12-26T03:50:41.676Z,0
2016-12-26T03:51:22.185Z,0
2016-12-26T03:52:02.668Z,0
2016-12-26T03:52:43.182Z,0
2016-12-26T03:53:23.667Z,0
2016-12-26T03:54:04.159Z,0
2016-12-26T03:54:44.653Z,0
2016-12-26T03:55:25.153Z,0
2016-12-26T03:56:05.661Z,0
2016-12-26T03:56:46.155Z,0
2016-12-26T03:57:26.654Z,0
2016-12-26T03:58:07.413Z,0
2016-12-26T03:58:47.899Z,0
2016-12-26T03:59:28.387Z,0
2016-12-26T04:00:08.869Z,0
2016-12-26T04:00:49.361Z,0
2016-12-26T04:01:29.856Z,0
2016-12-26T04:02:10.347Z,0
2016-12-26T04:02:50.857Z,0
2016-12-26T04:03:31.344Z,0
2016-12-26T04:04:11.830Z,0
2016-12-26T04:04:52.312Z,0
2016-12-26T04:05:32.800Z,0
2016-12-26T04:06:13.303Z,0
2016-12-26T04:06:53.802Z,0
2016-12-26T04:07:34.295Z,0
2016-12-26T04:08:14.772Z,0
2016-12-26T04:08:55.262Z,0
2016-12-26T04:09:35.749Z,0
2016-12-26T04:10:16.242Z,0
2016-12-26T04:10:56.747Z,0
2016-12-26T04:11:37.235Z,0
2016-12-26T04:12:17.715Z,0
2016-12-26T04:12:58.206Z,0
2016-12-26T04:13:38.715Z,0
2016-12-26T04:14:19.204Z,0
2016-12-26T04:14:59.696Z,0
2016-12-26T04:15:40.194Z,0
2016-12-26T04:16:20.688Z,0
2016-12-26T04:17:01.187Z,0
2016-12-26T04:17:41.682Z,0
2016-12-26T04:18:22.189Z,0
2016-12-26T04:19:02.686Z,0
2016-12-26T04:19:43.186Z,0
2016-12-26T04:20:23.688Z,0
2016-12-26T04:21:04.184Z,0
2016-12-26T04:21:44.675Z,0
2016-12-26T04:22:25.261Z,0
2016-12-26T04:23:05.750Z,0
2016-12-26T04:23:46.543Z,0
2016-12-26T04:24:27.022Z,0
2016-12-26T04:25:07.511Z,0
2016-12-26T04:25:48.012Z,0
2016-12-26T04:26:28.508Z,0
2016-12-26T04:27:09.003Z,0
2016-12-26T04:27:49.490Z,0
2016-12-26T04:28:29.981Z,0
2016-12-26T04:29:10.482Z,0
2016-12-26T04:29:50.974Z,0
2016-12-26T04:30:31.480Z,0
2016-12-26T04:31:11.975Z,0
2016-12-26T04:31:52.484Z,0
2016-12-26T04:32:32.982Z,0
2016-12-26T04:33:13.486Z,0
2016-12-26T04:33:53.973Z,0
2016-12-26T04:34:34.458Z,0
2016-12-26T04:35:14.947Z,0
2016-12-26T04:35:55.454Z,0
2016-12-26T04:36:35.935Z,0
2016-12-26T04:37:16.431Z,0
2016-12-26T04:37:56.924Z,0
2016-12-26T04:38:37.416Z,0
2016-12-26T04:39:17.928Z,0
2016-12-26T04:39:58.421Z,0
2016-12-26T04:40:38.925Z,0
2016-12-26T04:41:19.409Z,0
2016-12-26T04:41:59.903Z,0
2016-12-26T04:42:40.397Z,0
2016-12-26T04:43:20.885Z,0
2016-12-26T04:44:01.377Z,0
2016-12-26T04:44:41.867Z,0
2016-12-26T04:45:22.368Z,0
2016-12-26T04:46:02.865Z,0
2016-12-26T04:46:43.363Z,0
2016-12-26T04:47:23.858Z,0
2016-12-26T04:48:04.368Z,0
2016-12-26T04:48:44.859Z,0
2016-12-26T04:49:25.363Z,0
2016-12-26T04:50:05.857Z,0
2016-12-26T04:50:46.361Z,0
2016-12-26T04:51:26.850Z,0
2016-12-26T04:52:07.345Z,0
2016-12-26T04:52:47.852Z,0
2016-12-26T04:53:28.333Z,0
2016-12-26T04:54:08.825Z,0
2016-12-26T04:54:49.315Z,0
2016-12-26T04:55:29.809Z,0
2016-12-26T04:56:10.297Z,0
2016-12-26T04:56:50.794Z,0
2016-12-26T04:57:31.301Z,0
2016-12-26T04:58:11.792Z,0
2016-12-26T04:58:52.296Z,0
2016-12-26T04:59:32.780Z,0
2016-12-26T05:00:13.271Z,0
2016-12-26T05:00:53.769Z,0
2016-12-26T05:01:34.254Z,0
2016-12-26T05:02:14.744Z,0
2016-12-26T05:02:55.233Z,0
2016-12-26T05:03:35.721Z,0
2016-12-26T05:04:16.213Z,0
2016-12-26T05:04:56.700Z,0
2016-12-26T05:05:37.186Z,0
2016-12-26T05:06:17.676Z,0
2016-12-26T05:06:58.168Z,0
2016-12-26T05:07:38.661Z,0
2016-12-26T05:08:19.152Z,0
2016-12-26T05:08:59.795Z,0
2016-12-26T05:09:40.276Z,0
2016-12-26T05:10:20.767Z,0
2016-12-26T05:11:01.257Z,0
2016-12-26T05:11:41.747Z,0
2016-12-26T05:12:22.241Z,0
2016-12-26T05:13:02.735Z,0
2016-12-26T05:13:43.225Z,0
2016-12-26T05:14:23.734Z,0
2016-12-26T05:15:04.245Z,0
2016-12-26T05:15:44.737Z,0
2016-12-26T05:16:25.248Z,0
2016-12-26T05:17:05.756Z,0
2016-12-26T05:17:46.243Z,0
2016-12-26T05:18:26.737Z,0
2016-12-26T05:19:07.236Z,0
2016-12-26T05:19:47.727Z,0
2016-12-26T05:20:28.217Z,0
2016-12-26T05:21:08.724Z,0
2016-12-26T05:21:49.236Z,0
2016-12-26T05:22:29.722Z,0
2016-12-26T05:23:10.230Z,0
2016-12-26T05:23:50.735Z,0
2016-12-26T05:24:31.228Z,0
2016-12-26T05:25:11.718Z,0
2016-12-26T05:25:52.226Z,0
2016-12-26T05:26:32.712Z,0
2016-12-26T05:29:00.801Z,0
2016-12-26T05:29:41.302Z,0
2016-12-26T05:30:21.798Z,0
2016-12-26T05:31:02.301Z,0
2016-12-26T05:31:42.775Z,0
2016-12-26T05:32:23.270Z,0
2016-12-26T05:33:03.755Z,0
2016-12-26T05:33:44.250Z,0
2016-12-26T05:34:24.743Z,0
2016-12-26T05:35:05.247Z,0
2016-12-26T05:35:45.744Z,0
2016-12-26T05:36:26.236Z,0
2016-12-26T05:37:06.720Z,0
2016-12-26T05:37:47.204Z,0
2016-12-26T05:38:27.693Z,0
2016-12-26T05:39:08.192Z,0
2016-12-26T05:39:48.676Z,0
2016-12-26T05:40:29.164Z,0
2016-12-26T05:41:09.659Z,0
2016-12-26T05:41:50.161Z,0
2016-12-26T05:42:30.656Z,0
2016-12-26T05:43:11.161Z,0
2016-12-26T05:43:51.651Z,0
2016-12-26T05:44:32.158Z,0
2016-12-26T05:45:12.649Z,0
2016-12-26T05:45:53.152Z,0
2016-12-26T05:46:33.645Z,0
2016-12-26T05:47:14.237Z,0
2016-12-26T05:47:54.733Z,0
2016-12-26T05:48:35.229Z,0
2016-12-26T05:49:15.733Z,0
2016-12-26T05:49:56.223Z,0
2016-12-26T05:50:36.716Z,0
2016-12-26T05:51:17.219Z,0
2016-12-26T05:51:57.710Z,0
2016-12-26T05:52:38.202Z,0
2016-12-26T05:53:18.683Z,0
2016-12-26T05:53:59.176Z,0
2016-12-26T05:54:39.665Z,0
2016-12-26T05:55:20.151Z,0
2016-12-26T05:56:00.649Z,0
2016-12-26T05:56:41.141Z,0
2016-12-26T05:57:21.628Z,0
2016-12-26T05:58:02.110Z,0
2016-12-26T05:58:42.595Z,0
2016-12-26T05:59:23.080Z,0
2016-12-26T06:00:03.582Z,0
2016-12-26T06:00:44.073Z,0
2016-12-26T06:01:24.555Z,0
2016-12-26T06:02:05.043Z,0
2016-12-26T06:02:45.526Z,0
2016-12-26T06:03:26.019Z,0
2016-12-26T06:04:06.513Z,0
2016-12-26T06:04:47.332Z,0
2016-12-26T06:05:27.738Z,0
2016-12-26T06:06:08.232Z,0
2016-12-26T06:06:48.719Z,0
2016-12-26T06:07:29.205Z,0
2016-12-26T06:08:09.694Z,0
2016-12-26T06:08:50.177Z,0
2016-12-26T06:09:30.682Z,0
2016-12-26T06:10:11.171Z,0
2016-12-26T06:10:51.667Z,0
2016-12-26T06:11:32.160Z,0
2016-12-26T06:12:12.656Z,0
2016-12-26T06:12:53.163Z,0
2016-12-26T06:13:33.654Z,0
2016-12-26T06:14:14.165Z,0
2016-12-26T06:14:54.655Z,0
2016-12-26T06:15:35.161Z,0
2016-12-26T06:16:15.644Z,0
2016-12-26T06:16:56.154Z,0
2016-12-26T06:17:36.653Z,0
2016-12-26T06:18:17.156Z,0
2016-12-26T06:18:57.645Z,0
2016-12-26T06:19:38.149Z,0
2016-12-26T06:20:18.644Z,0
2016-12-26T06:20:59.147Z,0
2016-12-26T06:21:39.648Z,0
2016-12-26T06:22:20.153Z,0
2016-12-26T06:23:00.648Z,0
2016-12-26T06:23:41.152Z,0
2016-12-26T06:24:21.637Z,0
2016-12-26T06:25:02.132Z,0
2016-12-26T06:25:42.640Z,0
2016-12-26T06:26:23.126Z,0
2016-12-26T06:27:03.616Z,0
2016-12-26T06:27:44.116Z,0
2016-12-26T06:28:24.604Z,0
2016-12-26T06:29:05.100Z,0
2016-12-26T06:29:45.599Z,0
2016-12-26T06:30:26.318Z,0
2016-12-26T06:31:06.807Z,0
2016-12-26T06:31:47.315Z,0
2016-12-26T06:32:27.803Z,0
2016-12-26T06:33:08.300Z,0
2016-12-26T06:33:48.794Z,0
2016-12-26T06:34:29.288Z,0
2016-12-26T06:35:09.758Z,0
2016-12-26T06:35:50.246Z,0
2016-12-26T06:36:30.741Z,0
2016-12-26T06:37:11.239Z,0
2016-12-26T06:37:51.737Z,0
2016-12-26T06:38:32.242Z,0
2016-12-26T06:39:12.743Z,0
2016-12-26T06:39:53.237Z,0
2016-12-26T06:40:33.727Z,0
2016-12-26T06:41:14.238Z,0
2016-12-26T06:41:54.734Z,0
2016-12-26T06:42:35.237Z,0
2016-12-26T06:43:15.732Z,0
2016-12-26T06:43:56.261Z,0
2016-12-26T06:44:36.748Z,0
2016-12-26T06:45:17.235Z,0
2016-12-26T06:45:57.725Z,0
2016-12-26T06:46:38.226Z,0
2016-12-26T06:47:18.722Z,0
2016-12-26T06:47:59.215Z,0
2016-12-26T06:48:39.720Z,0
2016-12-26T06:49:20.226Z,0
2016-12-26T06:50:00.721Z,0
2016-12-26T06:50:41.210Z,0
2016-12-26T06:51:21.703Z,0
2016-12-26T06:52:02.194Z,0
2016-12-26T06:52:42.673Z,0
2016-12-26T06:53:23.166Z,0
2016-12-26T06:54:03.669Z,0
2016-12-26T06:54:44.146Z,0
2016-12-26T06:56:41.833Z,0
2016-12-26T06:57:22.328Z,0
2016-12-26T06:58:02.853Z,0
2016-12-26T06:58:43.340Z,0
2016-12-26T06:59:23.831Z,0
2016-12-26T07:00:04.330Z,0
2016-12-26T07:00:44.817Z,0
2016-12-26T07:01:25.302Z,0
2016-12-26T07:02:05.782Z,0
2016-12-26T07:02:46.274Z,0
2016-12-26T07:03:26.776Z,0
2016-12-26T07:04:07.266Z,0
2016-12-26T07:04:47.752Z,0
2016-12-26T07:05:28.242Z,0
2016-12-26T07:06:08.736Z,0
2016-12-26T07:06:49.226Z,0
2016-12-26T07:07:29.722Z,0
2016-12-26T07:08:10.215Z,0
2016-12-26T07:08:50.703Z,4
2016-12-26T07:09:31.200Z,4
2016-12-26T07:10:11.706Z,4
2016-12-26T07:10:52.218Z,4
2016-12-26T07:11:32.703Z,4
2016-12-26T07:12:13.189Z,0
2016-12-26T07:12:53.689Z,0
2016-12-26T07:13:34.178Z,4
2016-12-26T07:14:14.665Z,4
2016-12-26T07:14:55.150Z,4
2016-12-26T07:15:35.665Z,4
2016-12-26T07:16:16.151Z,4
2016-12-26T07:16:56.662Z,4
2016-12-26T07:17:37.157Z,8
2016-12-26T07:18:17.638Z,4
2016-12-26T07:18:58.120Z,4
2016-12-26T07:19:38.611Z,4
2016-12-26T07:20:19.106Z,12
2016-12-26T07:20:59.597Z,12
2016-12-26T07:21:40.097Z,16
2016-12-26T07:22:20.594Z,12
2016-12-26T07:23:01.100Z,12
2016-12-26T07:23:41.596Z,12
2016-12-26T07:24:22.102Z,16
2016-12-26T07:25:02.585Z,16
2016-12-26T07:25:43.100Z,16
2016-12-26T07:26:23.773Z,16
2016-12-26T07:27:04.268Z,16
2016-12-26T07:27:44.759Z,16
2016-12-26T07:28:25.359Z,20
2016-12-26T07:29:05.853Z,20
2016-12-26T07:29:46.341Z,20
2016-12-26T07:30:26.827Z,16
2016-12-26T07:31:07.321Z,16
2016-12-26T07:31:47.814Z,20
2016-12-26T07:32:28.306Z,16
2016-12-26T07:33:08.802Z,20
2016-12-26T07:33:49.299Z,24
2016-12-26T07:34:29.778Z,24
2016-12-26T07:35:10.266Z,24
2016-12-26T07:35:50.751Z,28
2016-12-26T07:36:31.241Z,24
2016-12-26T07:37:11.740Z,20
2016-12-26T07:37:52.227Z,20
2016-12-26T07:38:32.743Z,16
2016-12-26T07:39:13.230Z,24
2016-12-26T07:39:53.733Z,16
2016-12-26T07:40:34.198Z,20
2016-12-26T07:41:14.704Z,16
2016-12-26T07:41:55.192Z,24
2016-12-26T07:42:35.688Z,20
2016-12-26T07:43:16.185Z,16
2016-12-26T07:43:56.683Z,16
2016-12-26T07:44:37.182Z,16
2016-12-26T07:45:17.671Z,12
2016-12-26T07:45:58.160Z,12
2016-12-26T07:46:38.657Z,8
2016-12-26T07:47:19.147Z,8
2016-12-26T07:47:59.635Z,12
2016-12-26T07:48:40.129Z,24
2016-12-26T07:49:20.631Z,28
2016-12-26T07:50:01.128Z,40
2016-12-26T07:50:41.625Z,48
2016-12-26T07:51:22.117Z,56
2016-12-26T07:52:02.796Z,64
2016-12-26T07:52:43.282Z,76
2016-12-26T07:53:23.779Z,92
2016-12-26T07:54:04.280Z,104
2016-12-26T07:54:44.769Z,112
2016-12-26T07:55:25.256Z,120
2016-12-26T07:56:05.755Z,136
2016-12-26T07:56:46.241Z,136
2016-12-26T07:57:26.729Z,136
2016-12-26T07:58:07.226Z,136
2016-12-26T07:58:47.724Z,152
2016-12-26T07:59:28.212Z,164
2016-12-26T08:00:08.690Z,180
2016-12-26T08:00:49.183Z,192
2016-12-26T08:01:29.672Z,184
2016-12-26T08:02:10.170Z,172
2016-12-26T08:02:50.662Z,160
2016-12-26T08:03:31.165Z,148
2016-12-26T08:04:11.653Z,144
2016-12-26T08:04:52.145Z,136
2016-12-26T08:05:32.637Z,132
2016-12-26T08:06:13.117Z,124
2016-12-26T08:06:53.614Z,116
2016-12-26T08:07:34.102Z,120
2016-12-26T08:08:14.589Z,120
2016-12-26T08:08:55.075Z,132
2016-12-26T08:09:35.576Z,116
2016-12-26T08:10:16.067Z,124
2016-12-26T08:10:56.563Z,128
2016-12-26T08:11:37.052Z,124
2016-12-26T08:12:17.561Z,128
2016-12-26T08:12:58.057Z,128
2016-12-26T08:13:38.549Z,128
2016-12-26T08:14:19.031Z,136
2016-12-26T08:14:59.519Z,136
2016-12-26T08:15:40.023Z,136
2016-12-26T08:16:20.507Z,128
2016-12-26T08:17:01.005Z,136
2016-12-26T08:17:41.502Z,140
2016-12-26T08:18:21.991Z,152
2016-12-26T08:19:02.499Z,168
2016-12-26T08:19:42.985Z,180
2016-12-26T08:20:23.478Z,192
2016-12-26T08:21:03.953Z,212
2016-12-26T08:21:44.468Z,220
2016-12-26T08:22:24.952Z,224
2016-12-26T08:23:05.446Z,236
2016-12-26T08:23:45.940Z,224
2016-12-26T08:24:26.431Z,212
2016-12-26T08:25:06.914Z,188
2016-12-26T08:25:47.420Z,152
2016-12-26T08:26:27.911Z,128
2016-12-26T08:27:08.408Z,116
2016-12-26T08:27:48.912Z,112
2016-12-26T08:28:29.408Z,120
2016-12-26T08:29:09.905Z,128
2016-12-26T08:29:50.393Z,140
2016-12-26T08:30:30.889Z,152
2016-12-26T08:31:11.387Z,164
2016-12-26T08:31:51.871Z,188
2016-12-26T08:32:32.364Z,192
2016-12-26T08:33:12.863Z,188
2016-12-26T08:33:53.373Z,192
2016-12-26T08:34:33.869Z,224
2016-12-26T08:35:14.361Z,236
2016-12-26T08:35:54.867Z,232
2016-12-26T08:36:35.358Z,200
2016-12-26T08:37:16.279Z,180
2016-12-26T08:37:56.769Z,164
2016-12-26T08:38:37.289Z,164
2016-12-26T08:39:17.787Z,164
2016-12-26T08:39:58.276Z,168
2016-12-26T08:40:38.763Z,136
2016-12-26T08:41:19.246Z,132
2016-12-26T08:41:59.735Z,140
2016-12-26T08:42:40.231Z,132
2016-12-26T08:43:20.718Z,132
2016-12-26T08:44:01.204Z,128
2016-12-26T08:44:41.689Z,128
2016-12-26T08:45:22.181Z,116
2016-12-26T08:46:02.681Z,104
2016-12-26T08:46:43.167Z,116
2016-12-26T08:47:23.654Z,112
2016-12-26T08:48:04.137Z,112
2016-12-26T08:48:44.630Z,112
2016-12-26T08:49:25.126Z,116
2016-12-26T08:50:05.609Z,120
2016-12-26T08:50:46.096Z,116
2016-12-26T08:51:26.580Z,120
2016-12-26T08:52:07.087Z,148
2016-12-26T08:52:47.578Z,160
2016-12-26T08:53:28.042Z,144
2016-12-26T08:54:08.570Z,148
2016-12-26T08:54:49.066Z,144
2016-12-26T08:55:29.567Z,164
2016-12-26T08:56:10.056Z,156
2016-12-26T08:56:50.570Z,144
2016-12-26T08:57:31.431Z,140
2016-12-26T08:58:11.937Z,124
2016-12-26T08:58:52.425Z,160
2016-12-26T08:59:32.908Z,152
2016-12-26T09:00:13.399Z,184
2016-12-26T09:00:53.892Z,244
2016-12-26T09:01:34.393Z,256
2016-12-26T09:02:14.875Z,280
2016-12-26T09:02:55.369Z,236
2016-12-26T09:03:35.869Z,248
2016-12-26T09:04:16.353Z,196
2016-12-26T09:04:56.847Z,212
2016-12-26T09:05:37.357Z,216
2016-12-26T09:06:17.854Z,180
2016-12-26T09:06:58.353Z,176
2016-12-26T09:07:38.843Z,220
2016-12-26T09:08:19.320Z,220
2016-12-26T09:08:59.829Z,184
2016-12-26T09:09:40.317Z,192
2016-12-26T09:10:20.813Z,192
2016-12-26T09:11:01.305Z,208
2016-12-26T09:11:41.810Z,212
2016-12-26T09:12:22.307Z,160
2016-12-26T09:13:02.795Z,136
2016-12-26T09:13:43.289Z,168
2016-12-26T09:14:23.794Z,144
2016-12-26T09:15:04.290Z,160
2016-12-26T09:15:44.792Z,168
2016-12-26T09:16:25.303Z,200
2016-12-26T09:17:05.796Z,188
2016-12-26T09:17:46.279Z,224
2016-12-26T09:18:27.265Z,252
2016-12-26T09:19:07.756Z,300
2016-12-26T09:19:48.241Z,280
2016-12-26T09:20:28.736Z,276
2016-12-26T09:21:09.214Z,264
2016-12-26T09:21:49.706Z,256
2016-12-26T09:22:30.193Z,240
2016-12-26T09:23:10.705Z,236
2016-12-26T09:23:51.195Z,232
2016-12-26T09:24:31.690Z,276
2016-12-26T09:25:12.191Z,304
2016-12-26T09:25:52.675Z,352
2016-12-26T09:26:33.162Z,364
2016-12-26T09:27:13.653Z,372
2016-12-26T09:27:54.155Z,340
2016-12-26T09:28:34.641Z,320
2016-12-26T09:29:15.133Z,384
2016-12-26T09:29:55.646Z,460
2016-12-26T09:30:36.151Z,432
2016-12-26T09:31:16.639Z,432
2016-12-26T09:31:57.121Z,428
2016-12-26T09:32:37.606Z,416
2016-12-26T09:33:18.101Z,552
2016-12-26T09:33:58.593Z,412
2016-12-26T09:34:39.086Z,332
2016-12-26T09:35:19.580Z,312
2016-12-26T09:36:00.076Z,348
2016-12-26T09:36:40.570Z,432
2016-12-26T09:37:21.062Z,560
2016-12-26T09:38:01.558Z,720
2016-12-26T09:38:42.043Z,744
2016-12-26T09:39:22.530Z,912
2016-12-26T09:40:03.034Z,880
2016-12-26T09:40:43.532Z,948
2016-12-26T09:41:24.037Z,708
2016-12-26T09:42:04.525Z,784
2016-12-26T09:42:45.033Z,736
2016-12-26T09:43:25.531Z,896
2016-12-26T09:44:06.032Z,1040
2016-12-26T09:44:46.523Z,940
2016-12-26T09:45:27.015Z,912
2016-12-26T09:46:07.529Z,852
2016-12-26T09:46:48.035Z,616
2016-12-26T09:47:28.523Z,628
2016-12-26T09:48:09.034Z,492
2016-12-26T09:48:49.523Z,432
2016-12-26T09:49:30.026Z,328
2016-12-26T09:50:10.516Z,312
2016-12-26T09:50:51.029Z,368
2016-12-26T09:51:31.520Z,448
2016-12-26T09:52:12.007Z,432
2016-12-26T09:52:52.498Z,500
2016-12-26T09:53:32.998Z,656
2016-12-26T09:54:13.484Z,832
2016-12-26T09:54:53.990Z,980
2016-12-26T09:55:34.480Z,1204
2016-12-26T09:56:14.970Z,1264